Emma, Missouri
Current Conditions -  °F | °C
As of 2:58 PM on Thursday 23 Oct 2014 (Local Time) from KSZL Reporting Station
Broken Clouds Broken Clouds  
Wind Chill: 66°   Ceiling: 4000
Heat Index: 66°   Visibility: 10mi
Dew Point: 59°   Wind: 12mph
Humidity: 77%   Direction: 200°SSW
Pressure: 30.06"   Gusts: NA
Location:  38.97°N, 93.49°W
Report Text: KSZL 231958Z 20010KT 10SM BKN040 19/15 A3006 RMK AO2A SLP180 T01900148 $
Loading
Personal Weather Stations






























Interactive Weather Map
Tropical Storm Tracking
New forecast layout! Learn more

10-Day Weather Forecast

Advertisements
Track Severe Weather on mobile